createdAt,value
2022-08-07T00:00:03.527Z,98953.13
2022-08-07T00:02:44.620Z,98948.44
2022-08-07T00:05:14.400Z,98954.22
2022-08-07T00:07:43.457Z,98950.31
2022-08-07T00:10:26.024Z,98952.31
2022-08-07T00:13:00.306Z,98961.47
2022-08-07T00:15:37.755Z,98954.09
2022-08-07T00:18:19.196Z,98952.41
2022-08-07T00:20:50.685Z,98959.75
2022-08-07T00:23:21.061Z,98956.38
2022-08-07T00:25:52.105Z,98950.94
2022-08-07T00:28:34.381Z,98951.16
2022-08-07T00:31:12.621Z,98953.13
2022-08-07T00:33:47.567Z,98951.09
2022-08-07T00:36:17.114Z,98946.88
2022-08-07T00:38:45.928Z,98942.91
2022-08-07T00:41:15.297Z,98944.78
2022-08-07T00:44:00.786Z,98944.44
2022-08-07T00:46:33.237Z,98940.63
2022-08-07T00:49:03.749Z,98942.41
2022-08-07T00:51:57.370Z,98935.59
2022-08-07T00:54:22.598Z,98933.16
2022-08-07T00:56:53.224Z,98933.25
2022-08-07T00:59:35.825Z,98936.03
2022-08-07T01:02:14.245Z,98932.06
2022-08-07T01:04:58.370Z,98934.59
2022-08-07T01:07:31.144Z,98940.22
2022-08-07T01:10:06.946Z,98936.84
2022-08-07T01:12:53.516Z,98937.03
2022-08-07T01:16:00.619Z,98940.22
2022-08-07T01:18:17.849Z,98941.53
2022-08-07T01:20:59.371Z,98946.72
2022-08-07T01:23:38.504Z,98938.25
2022-08-07T01:26:12.089Z,98932.31
2022-08-07T01:28:48.177Z,98926.97
2022-08-07T01:31:41.742Z,98932.31
2022-08-07T01:34:18.897Z,98933.00
2022-08-07T01:36:52.582Z,98924.66
2022-08-07T01:39:41.445Z,98931.28
2022-08-07T01:42:40.220Z,98939.09
2022-08-07T01:45:37.278Z,98928.25
2022-08-07T01:48:20.741Z,98922.94
2022-08-07T01:51:24.629Z,98931.72
2022-08-07T01:54:12.559Z,98931.28
2022-08-07T01:56:53.541Z,98925.16
2022-08-07T01:59:31.064Z,98934.41
2022-08-07T02:02:07.340Z,98933.16
2022-08-07T02:04:56.440Z,98929.38
2022-08-07T02:07:50.477Z,98933.53
2022-08-07T02:10:29.328Z,98926.41
2022-08-07T02:13:01.962Z,98920.75
2022-08-07T02:15:40.655Z,98917.03
2022-08-07T02:18:13.739Z,98913.91
2022-08-07T02:20:48.659Z,98919.56
2022-08-07T02:23:24.767Z,98911.06
2022-08-07T02:26:31.973Z,98912.84
2022-08-07T02:28:46.066Z,98915.88
2022-08-07T02:31:28.670Z,98919.16
2022-08-07T02:34:03.885Z,98914.84
2022-08-07T02:36:41.286Z,98909.13
2022-08-07T02:39:43.016Z,98921.78
2022-08-07T02:42:10.313Z,98919.38
2022-08-07T02:44:50.030Z,98917.63
2022-08-07T02:47:23.982Z,98912.31
2022-08-07T02:50:06.403Z,98913.59
2022-08-07T02:52:40.652Z,98916.88
2022-08-07T02:55:28.321Z,98925.56
2022-08-07T02:58:16.005Z,98925.56
2022-08-07T03:00:49.298Z,98921.03
2022-08-07T03:03:22.893Z,98934.16
2022-08-07T03:05:57.741Z,98928.34
2022-08-07T03:08:29.546Z,98923.78
2022-08-07T03:11:02.880Z,98928.44
2022-08-07T03:13:39.026Z,98925.31
2022-08-07T03:16:12.903Z,98928.25
2022-08-07T03:18:44.094Z,98925.47
2022-08-07T03:21:14.603Z,98927.56
2022-08-07T03:24:20.625Z,98933.22
2022-08-07T03:26:42.930Z,98931.19
2022-08-07T03:29:23.525Z,98921.88
2022-08-07T03:31:59.273Z,98921.13
2022-08-07T03:34:28.869Z,98920.69
2022-08-07T03:37:11.957Z,98916.31
2022-08-07T03:40:13.407Z,98926.25
2022-08-07T03:42:39.954Z,98923.59
2022-08-07T03:45:11.332Z,98922.94
2022-08-07T03:47:48.123Z,98922.47
2022-08-07T03:50:25.272Z,98918.03
2022-08-07T03:53:00.275Z,98915.44
2022-08-07T03:55:57.302Z,98922.94
2022-08-07T03:59:06.751Z,98925.28
2022-08-07T04:01:13.966Z,98922.34
2022-08-07T04:03:49.910Z,98921.13
2022-08-07T04:06:37.831Z,98917.38
2022-08-07T04:09:15.838Z,98921.94
2022-08-07T04:12:23.693Z,98922.84
2022-08-07T04:14:43.941Z,98917.28
2022-08-07T04:17:20.979Z,98928.75
2022-08-07T04:19:57.545Z,98932.69
2022-08-07T04:22:30.035Z,98928.75
2022-08-07T04:25:03.680Z,98928.22
2022-08-07T04:27:44.312Z,98933.94
2022-08-07T04:30:35.966Z,98933.72
2022-08-07T04:33:18.100Z,98933.97
2022-08-07T04:35:54.184Z,98936.81
2022-08-07T04:38:29.647Z,98927.88
2022-08-07T04:41:00.791Z,98921.75
2022-08-07T04:44:10.504Z,98931.75
2022-08-07T04:47:04.812Z,98924.56
2022-08-07T04:49:57.468Z,98937.38
2022-08-07T04:52:50.943Z,98940.47
2022-08-07T04:58:12.542Z,98946.63
2022-08-07T04:58:49.804Z,98950.84
2022-08-07T05:01:30.242Z,98951.50
2022-08-07T05:04:15.645Z,98950.91
2022-08-07T05:06:57.618Z,98950.19
2022-08-07T05:09:45.293Z,98961.78
2022-08-07T05:12:27.102Z,98952.13
2022-08-07T05:15:21.727Z,98949.72
2022-08-07T05:18:09.305Z,98945.75
2022-08-07T05:20:45.039Z,98948.72
2022-08-07T05:23:19.860Z,98949.84
2022-08-07T05:26:11.737Z,98945.00
2022-08-07T05:28:48.643Z,98939.34
2022-08-07T05:31:25.387Z,98939.91
2022-08-07T05:34:11.008Z,98936.72
2022-08-07T05:36:48.983Z,98943.97
2022-08-07T05:40:05.660Z,98938.75
2022-08-07T05:42:37.047Z,98934.47
2022-08-07T05:45:25.711Z,98941.25
2022-08-07T05:48:07.492Z,98935.75
2022-08-07T05:50:43.307Z,98944.97
2022-08-07T05:54:09.509Z,98943.91
2022-08-07T05:56:07.073Z,98948.81
2022-08-07T05:58:52.361Z,98956.34
2022-08-07T06:01:26.480Z,98940.91
2022-08-07T06:04:06.652Z,98941.38
2022-08-07T06:06:46.410Z,98952.06
2022-08-07T06:09:19.296Z,98967.38
2022-08-07T06:11:51.309Z,98952.16
2022-08-07T06:14:28.728Z,98955.72
2022-08-07T06:17:07.090Z,98963.03
2022-08-07T06:19:52.108Z,98952.47
2022-08-07T06:22:38.821Z,98948.41
2022-08-07T06:25:26.699Z,98964.69
2022-08-07T06:28:05.487Z,98954.28
2022-08-07T06:30:42.708Z,98950.59
2022-08-07T06:33:20.124Z,98967.69
2022-08-07T06:36:12.839Z,98963.13
2022-08-07T06:38:58.816Z,98968.41
2022-08-07T06:42:02.268Z,98976.97
2022-08-07T06:45:13.321Z,98967.03
2022-08-07T06:47:58.452Z,98967.47
2022-08-07T06:50:37.978Z,98958.63
2022-08-07T06:53:49.218Z,98966.44
2022-08-07T06:56:15.312Z,98968.84
2022-08-07T07:00:14.842Z,98957.69
2022-08-07T07:01:48.818Z,98958.81
2022-08-07T07:04:28.515Z,98961.16
2022-08-07T07:07:10.465Z,98964.69
2022-08-07T07:09:53.642Z,98965.63
2022-08-07T07:12:37.512Z,98971.38
2022-08-07T07:15:26.089Z,98966.00
2022-08-07T07:18:02.579Z,98967.34
2022-08-07T07:20:45.678Z,98973.41
2022-08-07T07:24:08.378Z,98964.69
2022-08-07T07:26:35.091Z,98970.03
2022-08-07T07:29:39.031Z,98966.34
2022-08-07T07:32:03.303Z,98967.69
2022-08-07T07:34:34.673Z,98962.91
2022-08-07T07:37:21.781Z,98964.81
2022-08-07T07:40:14.779Z,98968.88
2022-08-07T07:42:54.352Z,98969.38
2022-08-07T07:46:36.913Z,98960.28
2022-08-07T07:48:35.162Z,98963.22
2022-08-07T07:51:08.602Z,98961.50
2022-08-07T07:53:51.429Z,98952.16
2022-08-07T07:56:35.441Z,98953.06
2022-08-07T07:59:06.714Z,98949.44
2022-08-07T08:02:02.171Z,98949.38
2022-08-07T08:04:30.343Z,98946.94
2022-08-07T08:07:02.871Z,98950.59
2022-08-07T08:09:51.834Z,98949.16
2022-08-07T08:12:52.657Z,98951.63
2022-08-07T08:15:25.278Z,98967.34
2022-08-07T08:17:58.713Z,98971.97
2022-08-07T08:20:47.964Z,98963.91
2022-08-07T08:23:38.138Z,98957.19
2022-08-07T08:26:27.779Z,98962.69
2022-08-07T08:28:59.605Z,98952.72
2022-08-07T08:32:10.163Z,98952.31
2022-08-07T08:34:35.514Z,98945.06
2022-08-07T08:37:09.738Z,98955.94
2022-08-07T08:39:58.741Z,98937.13
2022-08-07T08:42:35.006Z,98946.28
2022-08-07T08:45:18.981Z,98935.56
2022-08-07T08:48:02.139Z,98931.59
2022-08-07T08:50:40.200Z,98927.00
2022-08-07T08:53:20.617Z,98918.06
2022-08-07T08:55:58.564Z,98924.84
2022-08-07T08:58:37.935Z,98917.75
2022-08-07T09:01:18.543Z,98925.50
2022-08-07T09:04:00.736Z,98922.06
2022-08-07T09:06:42.848Z,98926.16
2022-08-07T09:09:36.785Z,98933.53
2022-08-07T09:12:31.602Z,98923.34
2022-08-07T09:16:24.603Z,98936.22
2022-08-07T09:18:37.473Z,98930.22
2022-08-07T09:21:34.349Z,98923.97
2022-08-07T09:24:31.770Z,98922.09
2022-08-07T09:27:30.447Z,98918.66
2022-08-07T09:30:08.798Z,98923.31
2022-08-07T09:33:05.492Z,98916.44
2022-08-07T09:36:03.839Z,98916.34
2022-08-07T09:38:53.491Z,98908.88
2022-08-07T09:41:43.098Z,98920.28
2022-08-07T09:44:32.710Z,98906.94
2022-08-07T09:47:57.780Z,98906.66
2022-08-07T09:50:26.904Z,98900.78
2022-08-07T09:53:03.446Z,98904.69
2022-08-07T09:56:03.720Z,98895.47
2022-08-07T09:58:58.881Z,98890.94
2022-08-07T10:01:54.760Z,98887.31
2022-08-07T10:04:38.318Z,98885.31
2022-08-07T10:07:52.277Z,98877.13
2022-08-07T10:11:07.750Z,98874.53
2022-08-07T10:14:00.958Z,98870.56
2022-08-07T10:16:59.363Z,98867.16
2022-08-07T10:19:47.709Z,98870.31
2022-08-07T10:22:50.948Z,98871.59
2022-08-07T10:25:42.307Z,98867.72
2022-08-07T10:28:33.485Z,98865.75
2022-08-07T10:31:23.528Z,98857.81
2022-08-07T10:34:15.399Z,98874.59
2022-08-07T10:37:04.089Z,98862.09
2022-08-07T10:39:57.503Z,98871.28
2022-08-07T10:42:40.108Z,98855.50
2022-08-07T10:45:48.131Z,98851.41
2022-08-07T10:48:37.513Z,98844.44
2022-08-07T10:51:39.407Z,98850.53
2022-08-07T10:54:15.183Z,98842.06
2022-08-07T10:57:01.486Z,98839.22
2022-08-07T10:59:47.410Z,98839.44
2022-08-07T11:02:33.429Z,98832.31
2022-08-07T11:05:20.404Z,98839.78
2022-08-07T11:08:02.794Z,98840.22
2022-08-07T11:10:39.743Z,98841.69
2022-08-07T11:14:41.943Z,98835.53
2022-08-07T11:16:11.932Z,98838.25
2022-08-07T11:18:51.776Z,98833.09
2022-08-07T11:21:31.949Z,98834.97
2022-08-07T11:24:07.427Z,98829.47
2022-08-07T11:26:48.139Z,98822.16
2022-08-07T11:29:42.649Z,98823.19
2022-08-07T11:32:25.482Z,98837.44
2022-08-07T11:34:59.170Z,98831.06
2022-08-07T11:37:57.983Z,98844.03
2022-08-07T11:40:50.745Z,98850.09
2022-08-07T11:43:41.382Z,98852.72
2022-08-07T11:46:32.196Z,98852.38
2022-08-07T11:49:50.244Z,98858.28
2022-08-07T11:52:35.437Z,98866.53
2022-08-07T11:55:19.085Z,98869.72
2022-08-07T11:58:16.490Z,98876.25
2022-08-07T12:01:05.071Z,98861.09
2022-08-07T12:04:06.881Z,98876.13
2022-08-07T12:06:57.273Z,98875.41
2022-08-07T12:09:37.315Z,98892.88
2022-08-07T12:12:12.061Z,98899.75
2022-08-07T12:14:55.360Z,98893.69
2022-08-07T12:17:34.449Z,98893.34
2022-08-07T12:20:20.785Z,98899.72
2022-08-07T12:23:21.422Z,98902.81
2022-08-07T12:26:29.047Z,98901.44
2022-08-07T12:29:07.682Z,98909.97
2022-08-07T12:32:01.575Z,98922.03
2022-08-07T12:34:36.828Z,98937.13
2022-08-07T12:37:16.495Z,98945.75
2022-08-07T12:40:01.282Z,98946.72
2022-08-07T12:42:52.660Z,98948.00
2022-08-07T12:45:28.109Z,98948.53
2022-08-07T12:48:27.834Z,98953.78
2022-08-07T12:51:12.845Z,98939.34
2022-08-07T12:54:02.861Z,98936.78
2022-08-07T12:56:51.270Z,98952.84
2022-08-07T12:59:33.369Z,98947.81
2022-08-07T13:02:47.204Z,98948.38
2022-08-07T13:06:02.551Z,98948.47
2022-08-07T13:08:50.929Z,98957.66
2022-08-07T13:12:03.552Z,98970.63
2022-08-07T13:14:50.893Z,98972.56
2022-08-07T13:17:41.139Z,98981.25
2022-08-07T13:20:21.800Z,98999.44
2022-08-07T13:24:00.185Z,98994.06
2022-08-07T13:26:10.465Z,98982.38
2022-08-07T13:28:54.252Z,98971.06
2022-08-07T13:31:55.199Z,98978.41
2022-08-07T13:34:35.972Z,98974.81
2022-08-07T13:37:19.962Z,98986.78
2022-08-07T13:40:35.354Z,98984.00
2022-08-07T13:42:56.048Z,98983.34
2022-08-07T13:46:12.413Z,98981.91
2022-08-07T13:48:33.851Z,98979.63
2022-08-07T13:51:27.413Z,98974.38
2022-08-07T13:54:02.088Z,98971.28
2022-08-07T13:56:40.744Z,98970.63
2022-08-07T13:59:15.901Z,98976.28
2022-08-07T14:02:03.862Z,98973.94
2022-08-07T14:04:49.000Z,98964.97
2022-08-07T14:07:23.051Z,98975.91
2022-08-07T14:10:02.634Z,98985.50
2022-08-07T14:12:55.884Z,98971.25
2022-08-07T14:15:43.778Z,98975.25
2022-08-07T14:18:28.911Z,98971.56
2022-08-07T14:21:12.020Z,98964.88
2022-08-07T14:24:03.695Z,98972.56
2022-08-07T14:26:38.996Z,98964.94
2022-08-07T14:30:06.320Z,98964.50
2022-08-07T14:32:08.121Z,98966.41
2022-08-07T14:34:45.968Z,98968.81
2022-08-07T14:37:19.601Z,98961.53
2022-08-07T14:40:18.232Z,98957.50
2022-08-07T14:45:50.767Z,98976.94
2022-08-07T14:48:34.159Z,98978.66
2022-08-07T14:54:31.210Z,98974.44
2022-08-07T14:56:55.464Z,98978.53
2022-08-07T15:00:03.381Z,98976.97
2022-08-07T15:02:31.806Z,98979.31
2022-08-07T15:05:04.851Z,98981.13
2022-08-07T15:07:53.385Z,98974.63
2022-08-07T15:10:25.025Z,98976.91
2022-08-07T15:12:59.529Z,98975.81
2022-08-07T15:15:37.866Z,98983.91
2022-08-07T15:18:14.420Z,98982.38
2022-08-07T15:21:03.914Z,98981.13
2022-08-07T15:25:14.670Z,98987.69
2022-08-07T15:26:42.344Z,99005.97
2022-08-07T15:30:08.586Z,99019.19
2022-08-07T15:32:12.465Z,99018.16
2022-08-07T15:34:50.656Z,99011.59
2022-08-07T15:38:17.428Z,99005.25
2022-08-07T15:46:37.212Z,98987.75
2022-08-07T15:49:15.126Z,98976.56
2022-08-07T15:54:39.559Z,98963.06
2022-08-07T15:57:40.364Z,98967.00
2022-08-07T16:00:31.732Z,98965.44
2022-08-07T16:03:06.276Z,98971.44
2022-08-07T16:05:40.405Z,98975.59
2022-08-07T16:08:33.521Z,98980.50
2022-08-07T16:11:26.831Z,98975.25
2022-08-07T16:14:03.284Z,98982.81
2022-08-07T16:16:49.943Z,99003.66
2022-08-07T16:19:42.463Z,99009.75
2022-08-07T16:22:55.381Z,99014.81
2022-08-07T16:25:52.502Z,99015.78
2022-08-07T16:30:05.457Z,99018.44
2022-08-07T16:31:58.290Z,99025.41
2022-08-07T16:34:40.247Z,99027.97
2022-08-07T16:38:03.330Z,99035.09
2022-08-07T16:41:14.468Z,99041.22
2022-08-07T16:44:53.687Z,99041.16
2022-08-07T16:47:56.451Z,99042.56
2022-08-07T16:50:52.540Z,99038.88
2022-08-07T16:54:06.225Z,99046.53
2022-08-07T16:57:15.652Z,99050.94
2022-08-07T17:00:05.261Z,99057.91
2022-08-07T17:02:53.844Z,99053.31
2022-08-07T17:06:28.471Z,99053.31
2022-08-07T17:09:09.403Z,99052.38
2022-08-07T17:12:05.107Z,99047.66
2022-08-07T17:14:45.157Z,99053.34
2022-08-07T17:17:46.192Z,99056.00
2022-08-07T17:20:37.462Z,99062.72
2022-08-07T17:23:19.486Z,99074.38
2022-08-07T17:26:02.923Z,99078.53
2022-08-07T17:28:56.746Z,99080.28
2022-08-07T17:31:44.384Z,99077.16
2022-08-07T17:35:40.131Z,99081.81
2022-08-07T17:38:08.423Z,99089.66
2022-08-07T17:40:50.554Z,99081.47
2022-08-07T17:44:01.549Z,99079.66
2022-08-07T17:46:34.516Z,99083.31
2022-08-07T17:49:12.109Z,99084.97
2022-08-07T17:52:01.150Z,99086.69
2022-08-07T17:54:40.020Z,99094.69
2022-08-07T17:57:56.214Z,99085.38
2022-08-07T18:00:32.809Z,99088.22
2022-08-07T18:03:17.990Z,99086.69
2022-08-07T18:06:03.499Z,99080.25
2022-08-07T18:09:01.978Z,99093.88
2022-08-07T18:12:20.000Z,99096.91
2022-08-07T18:14:44.903Z,99101.44
2022-08-07T18:18:45.243Z,99101.19
2022-08-07T18:21:11.871Z,99101.44
2022-08-07T18:23:43.286Z,99104.91
2022-08-07T18:26:32.540Z,99112.97
2022-08-07T18:30:07.188Z,99112.47
2022-08-07T18:32:17.956Z,99121.03
2022-08-07T18:35:09.605Z,99119.91
2022-08-07T18:38:55.490Z,99119.59
2022-08-07T18:41:17.121Z,99112.44
2022-08-07T18:44:04.691Z,99118.22
2022-08-07T18:46:48.555Z,99118.38
2022-08-07T18:50:35.355Z,99112.53
2022-08-07T18:52:52.494Z,99118.31
2022-08-07T18:55:41.648Z,99122.84
2022-08-07T18:58:26.919Z,99111.97
2022-08-07T19:02:18.776Z,99119.16
2022-08-07T19:04:09.903Z,99136.75
2022-08-07T19:06:54.544Z,99139.22
2022-08-07T19:09:55.452Z,99140.81
2022-08-07T19:12:26.453Z,99136.97
2022-08-07T19:16:05.756Z,99141.09
2022-08-07T19:18:35.040Z,99138.09
2022-08-07T19:21:43.987Z,99134.53
2022-08-07T19:24:30.761Z,99133.13
2022-08-07T19:28:29.075Z,99133.31
2022-08-07T19:31:06.376Z,99125.88
2022-08-07T19:32:52.529Z,99131.91
2022-08-07T19:35:33.229Z,99126.13
2022-08-07T19:38:16.700Z,99122.94
2022-08-07T19:40:50.300Z,99124.34
2022-08-07T19:43:44.158Z,99127.94
2022-08-07T19:46:15.683Z,99127.53
2022-08-07T19:48:53.482Z,99125.34
2022-08-07T19:51:52.187Z,99123.63
2022-08-07T19:54:31.865Z,99133.31
2022-08-07T19:58:04.470Z,99134.53
2022-08-07T20:00:01.933Z,99130.53
2022-08-07T20:02:40.260Z,99132.59
2022-08-07T20:05:27.930Z,99124.28
2022-08-07T20:08:01.245Z,99113.94
2022-08-07T20:10:52.677Z,99123.44
2022-08-07T20:13:33.103Z,99125.63
2022-08-07T20:16:04.806Z,99129.59
2022-08-07T20:18:34.820Z,99128.94
2022-08-07T20:21:21.080Z,99135.75
2022-08-07T20:23:57.655Z,99127.63
2022-08-07T20:26:44.691Z,99133.75
2022-08-07T20:29:49.018Z,99131.88
2022-08-07T20:32:22.662Z,99128.66
2022-08-07T20:35:01.493Z,99124.56
2022-08-07T20:37:57.758Z,99125.84
2022-08-07T20:40:33.422Z,99122.22
2022-08-07T20:43:14.551Z,99108.53
2022-08-07T20:46:27.302Z,99107.28
2022-08-07T20:48:58.127Z,99105.16
2022-08-07T20:51:35.914Z,99109.44
2022-08-07T20:54:15.102Z,99114.63
2022-08-07T20:56:50.108Z,99118.53
2022-08-07T21:00:04.270Z,99120.00
2022-08-07T21:02:39.168Z,99116.97
2022-08-07T21:05:16.679Z,99111.91
2022-08-07T21:07:48.907Z,99110.00
2022-08-07T21:10:25.250Z,99110.09
2022-08-07T21:13:01.489Z,99094.66
2022-08-07T21:15:47.612Z,99088.84
2022-08-07T21:18:33.914Z,99089.84
2022-08-07T21:21:07.925Z,99110.88
2022-08-07T21:23:50.213Z,99112.78
2022-08-07T21:26:30.880Z,99115.44
2022-08-07T21:29:15.836Z,99123.38
2022-08-07T21:32:42.693Z,99131.69
2022-08-07T21:34:56.026Z,99130.91
2022-08-07T21:37:57.263Z,99127.41
2022-08-07T21:40:29.179Z,99130.25
2022-08-07T21:43:10.729Z,99128.38
2022-08-07T21:46:08.583Z,99137.47
2022-08-07T21:48:48.180Z,99136.16
2022-08-07T21:51:51.009Z,99135.41
2022-08-07T21:54:27.503Z,99146.88
2022-08-07T21:57:31.098Z,99145.94
2022-08-07T22:00:09.818Z,99143.22
2022-08-07T22:02:59.086Z,99150.81
2022-08-07T22:05:44.670Z,99143.34
2022-08-07T22:08:18.850Z,99144.06
2022-08-07T22:10:52.540Z,99153.53
2022-08-07T22:13:24.445Z,99151.94
2022-08-07T22:16:39.162Z,99148.97
2022-08-07T22:19:23.503Z,99146.50
2022-08-07T22:22:17.658Z,99146.09
2022-08-07T22:25:06.061Z,99143.88
2022-08-07T22:28:07.610Z,99143.47
2022-08-07T22:30:40.355Z,99148.66
2022-08-07T22:33:15.428Z,99139.56
2022-08-07T22:35:56.379Z,99138.28
2022-08-07T22:38:39.736Z,99140.09
2022-08-07T22:41:22.152Z,99143.38
2022-08-07T22:44:18.518Z,99137.31
2022-08-07T22:47:06.320Z,99142.31
2022-08-07T22:49:56.710Z,99144.59
2022-08-07T22:52:45.888Z,99138.31
2022-08-07T22:55:40.027Z,99135.97
2022-08-07T22:58:37.691Z,99141.84
2022-08-07T23:01:42.141Z,99147.44
2022-08-07T23:04:58.563Z,99152.41
2022-08-07T23:07:49.031Z,99155.75
2022-08-07T23:10:37.656Z,99152.25
2022-08-07T23:13:29.399Z,99162.22
2022-08-07T23:16:46.682Z,99158.81
2022-08-07T23:19:16.797Z,99163.19
2022-08-07T23:21:54.913Z,99164.88
2022-08-07T23:24:45.302Z,99169.53
2022-08-07T23:27:34.762Z,99167.97
2022-08-07T23:30:39.545Z,99167.28
2022-08-07T23:34:23.579Z,99169.25
2022-08-07T23:36:17.408Z,99160.53
2022-08-07T23:39:00.257Z,99167.16
2022-08-07T23:42:01.643Z,99159.66
2022-08-07T23:44:49.762Z,99168.56
2022-08-07T23:47:42.292Z,99162.56
2022-08-07T23:50:28.859Z,99154.84
2022-08-07T23:53:08.636Z,99156.81
2022-08-07T23:55:55.566Z,99167.13
2022-08-07T23:58:34.984Z,99161.25
